Time;durP1;ratioP1;P1;durP2;ratioP2;P2;SDS_P1;SDS_P2;PMS_P1;PMS_P2;Temp;Humidity;BMP_temperature;BMP_pressure;BME280_temperature;BME280_humidity;BME280_pressure;Samples;Min_cycle;Max_cycle;Signal;HPM_P1;HPM_P2
2023/03/10 00:02:01;;;;;;;3.22;1.02;;;;;;;14.03;43.02;97467.66;4519388;31;20080;-82
2023/03/10 00:04:26;;;;;;;5.47;1.30;;;;;;;13.91;42.93;97456.34;4504954;31;20478;-82
2023/03/10 00:06:52;;;;;;;5.95;1.15;;;;;;;13.88;42.82;97460.09;4519469;31;20092;-82
2023/03/10 00:09:17;;;;;;;4.28;1.27;;;;;;;13.83;42.91;97464.09;4504833;31;20111;-82
2023/03/10 00:11:42;;;;;;;4.75;1.30;;;;;;;13.86;42.89;97455.91;4519252;31;20410;-83
2023/03/10 00:14:08;;;;;;;3.95;1.10;;;;;;;13.45;43.77;97463.06;4519418;31;20134;-82
2023/03/10 00:16:33;;;;;;;6.05;1.40;;;;;;;13.68;43.12;97453.94;4519292;31;20088;-82
2023/03/10 00:18:59;;;;;;;4.62;1.00;;;;;;;13.67;42.97;97454.06;4504845;31;20087;-82
2023/03/10 00:21:29;;;;;;;6.18;1.20;;;;;;;13.77;42.71;97455.75;4519399;31;20071;-82
2023/03/10 00:23:55;;;;;;;5.82;1.40;;;;;;;13.57;43.24;97462.81;4519362;31;20136;-82
2023/03/10 00:26:22;;;;;;;6.25;1.30;;;;;;;13.56;43.41;97455.84;4519317;31;20099;-82
2023/03/10 00:28:47;;;;;;;5.72;1.50;;;;;;;13.57;43.34;97460.16;4504841;31;20448;-82
2023/03/10 00:31:16;;;;;;;6.25;1.20;;;;;;;13.69;43.12;97457.41;4519225;31;20079;-82
2023/03/10 00:33:42;;;;;;;4.05;1.10;;;;;;;13.66;43.13;97453.22;4519127;31;20092;-82
2023/03/10 00:36:23;;;;;;;4.80;1.20;;;;;;;13.39;43.27;97453.03;4504794;31;20363;-82
2023/03/10 00:38:49;;;;;;;4.78;1.30;;;;;;;13.49;43.10;97443.31;4519166;31;20441;-82
2023/03/10 00:41:18;;;;;;;4.03;0.98;;;;;;;13.49;42.89;97446.78;4504664;31;20385;-82
2023/03/10 00:43:43;;;;;;;3.42;0.90;;;;;;;13.57;42.65;97443.44;4518656;31;20092;-82
2023/03/10 00:46:09;;;;;;;2.40;0.73;;;;;;;13.58;42.56;97439.84;4519046;31;20084;-82
2023/03/10 00:48:35;;;;;;;1.77;0.80;;;;;;;13.59;42.58;97438.84;4519231;31;20132;-82
2023/03/10 00:51:00;;;;;;;3.30;0.82;;;;;;;13.59;42.48;97425.63;4519029;31;20075;-82
2023/03/10 00:53:26;;;;;;;3.70;0.85;;;;;;;13.52;42.70;97427.13;4519177;31;20474;-82
2023/03/10 00:56:24;;;;;;;4.80;0.90;;;;;;;13.64;42.41;97415.47;4519096;31;20084;-82
2023/03/10 00:58:57;;;;;;;3.08;0.77;;;;;;;13.61;42.52;97412.28;4425543;32;20141;-82
2023/03/10 01:01:26;;;;;;;6.10;1.00;;;;;;;13.69;42.34;97410.59;4438689;32;20069;-82
2023/03/10 01:03:56;;;;;;;2.75;0.85;;;;;;;13.44;42.72;97416.41;4438564;32;20097;-82
2023/03/10 01:06:22;;;;;;;4.22;1.10;;;;;;;13.25;43.17;97423.28;4438661;32;20094;-82
2023/03/10 01:08:48;;;;;;;4.55;0.98;;;;;;;13.50;42.56;97408.78;4438540;32;20112;-82
2023/03/10 01:11:14;;;;;;;4.10;0.80;;;;;;;13.60;42.45;97411.44;4438516;32;20113;-82
2023/03/10 01:13:40;;;;;;;4.47;0.93;;;;;;;13.61;42.44;97409.63;4438474;32;20549;-82
2023/03/10 01:16:06;;;;;;;2.85;0.80;;;;;;;13.67;42.23;97407.25;4438606;32;20449;-82
2023/03/10 01:18:32;;;;;;;0.85;0.47;;;;;;;13.70;42.20;97403.50;4438472;32;20151;-83
2023/03/10 01:20:57;;;;;;;2.97;0.65;;;;;;;13.67;42.28;97399.31;4438319;32;20155;-82
2023/03/10 01:23:27;;;;;;;5.78;0.70;;;;;;;13.68;42.21;97397.53;4425649;32;20158;-82
2023/03/10 01:25:52;;;;;;;4.20;0.80;;;;;;;13.54;42.50;97398.72;4438172;32;20166;-82
2023/03/10 01:28:19;;;;;;;3.37;0.90;;;;;;;13.66;42.20;97402.13;4425283;32;20480;-82
2023/03/10 01:30:44;;;;;;;3.35;0.70;;;;;;;13.65;42.30;97395.97;4438172;32;20107;-82
2023/03/10 01:33:10;;;;;;;3.47;0.85;;;;;;;13.44;42.55;97393.41;4438355;32;20488;-82
2023/03/10 01:35:36;;;;;;;5.35;0.80;;;;;;;13.58;42.20;97384.28;4519101;31;20083;-82
2023/03/10 01:38:02;;;;;;;2.17;0.70;;;;;;;13.79;41.90;97378.00;4518988;31;20435;-82
2023/03/10 01:40:28;;;;;;;2.17;0.75;;;;;;;13.69;41.96;97375.38;4518669;31;20122;-82
2023/03/10 01:43:19;;;;;;;3.50;1.10;;;;;;;13.65;42.04;97366.03;4518978;31;20114;-82
2023/03/10 01:45:44;;;;;;;2.90;0.75;;;;;;;13.75;41.81;97373.03;4518900;31;20075;-82
2023/03/10 01:48:14;;;;;;;2.78;0.80;;;;;;;13.67;41.95;97375.50;4518626;31;20135;-83
2023/03/10 01:50:41;;;;;;;3.65;0.80;;;;;;;13.72;41.82;97367.16;4490983;31;20087;-82
2023/03/10 01:53:06;;;;;;;1.90;0.70;;;;;;;13.74;41.79;97357.28;4491037;31;20446;-82
2023/03/10 01:55:34;;;;;;;3.30;0.75;;;;;;;13.79;41.64;97348.91;4502991;31;20121;-82
2023/03/10 01:57:59;;;;;;;3.00;0.73;;;;;;;13.68;41.82;97349.88;4504299;31;20427;-82
2023/03/10 02:00:26;;;;;;;3.15;0.77;;;;;;;13.56;42.19;97352.66;4518344;31;20075;-82
2023/03/10 02:03:15;;;;;;;5.13;1.27;;;;;;;13.69;41.90;97351.53;4518628;31;20087;-82
2023/03/10 02:05:45;;;;;;;7.37;1.40;;;;;;;13.90;41.91;97343.47;4518587;31;20087;-82
2023/03/10 02:08:11;;;;;;;4.15;0.95;;;;;;;13.82;41.98;97336.22;4504010;31;20136;-82
2023/03/10 02:10:36;;;;;;;3.17;0.82;;;;;;;13.56;42.42;97333.31;4504197;31;20347;-82
2023/03/10 02:13:02;;;;;;;3.95;1.05;;;;;;;13.64;42.37;97329.97;4504295;31;20135;-82
2023/03/10 02:15:28;;;;;;;3.95;1.10;;;;;;;13.57;42.52;97330.50;4518748;31;20127;-82
2023/03/10 02:17:53;;;;;;;5.70;1.23;;;;;;;13.66;42.46;97330.66;4518380;31;20072;-82
2023/03/10 02:20:55;;;;;;;5.68;1.37;;;;;;;13.66;42.47;97322.72;4518226;31;20083;-82
2023/03/10 02:23:54;;;;;;;7.07;1.50;;;;;;;13.61;43.30;97327.59;4503921;31;20100;-82
2023/03/10 02:26:33;;;;;;;7.90;2.00;;;;;;;13.58;44.26;97328.72;4503840;31;20528;-82
2023/03/10 02:28:59;;;;;;;7.07;1.77;;;;;;;13.39;45.24;97329.53;4518352;31;20548;-82
2023/03/10 02:31:26;;;;;;;6.50;1.98;;;;;;;13.42;45.88;97320.47;4503844;31;20076;-82
2023/03/10 02:33:51;;;;;;;7.40;1.95;;;;;;;13.56;45.90;97315.63;4503734;31;20565;-82
2023/03/10 02:36:19;;;;;;;6.62;1.90;;;;;;;13.57;46.15;97314.62;4503744;31;20168;-82
2023/03/10 02:38:44;;;;;;;8.43;2.20;;;;;;;13.60;46.45;97312.69;4518152;31;20076;-82
2023/03/10 02:41:26;;;;;;;7.20;2.30;;;;;;;13.57;47.24;97306.69;4517968;31;20464;-82
2023/03/10 02:43:52;;;;;;;8.80;3.03;;;;;;;13.63;47.93;97305.31;4503711;31;20108;-82
2023/03/10 02:46:18;;;;;;;10.48;3.87;;;;;;;13.58;48.41;97302.25;4503599;31;20099;-82
2023/03/10 02:48:43;;;;;;;13.52;5.18;;;;;;;13.64;48.56;97298.22;4503664;31;20123;-82
2023/03/10 02:51:14;;;;;;;14.60;5.15;;;;;;;13.56;49.01;97304.22;4518212;31;20079;-82
2023/03/10 02:53:40;;;;;;;11.43;4.53;;;;;;;13.56;49.17;97294.47;4503856;31;20159;-82
2023/03/10 02:56:05;;;;;;;11.88;4.45;;;;;;;12.96;50.89;97302.41;4503769;31;20126;-82
2023/03/10 02:58:32;;;;;;;12.13;3.65;;;;;;;13.49;49.55;97300.44;4518055;31;20358;-82
2023/03/10 03:00:57;;;;;;;9.40;2.47;;;;;;;13.38;50.05;97298.75;4517981;31;20136;-82
2023/03/10 03:03:23;;;;;;;8.88;2.35;;;;;;;13.05;51.45;97292.81;4517979;31;20422;-82
2023/03/10 03:05:49;;;;;;;6.75;2.40;;;;;;;13.31;51.07;97295.00;4504386;31;20565;-82
2023/03/10 03:08:16;;;;;;;10.07;2.65;;;;;;;13.33;50.98;97290.41;4520156;31;20098;-82
2023/03/10 03:10:41;;;;;;;9.93;2.63;;;;;;;13.07;51.73;97290.06;4505577;31;20546;-82
2023/03/10 03:13:07;;;;;;;10.63;3.12;;;;;;;13.15;51.74;97279.63;4520064;31;20084;-82
2023/03/10 03:15:33;;;;;;;8.65;2.83;;;;;;;13.44;50.76;97284.12;4505785;31;20092;-82
2023/03/10 03:17:59;;;;;;;8.95;2.92;;;;;;;13.52;50.41;97276.34;4520008;31;20441;-82
2023/03/10 03:20:26;;;;;;;8.50;2.78;;;;;;;13.43;50.80;97278.03;4519976;31;20143;-82
2023/03/10 03:22:52;;;;;;;9.80;3.28;;;;;;;13.52;50.41;97268.41;4520013;31;20126;-82
2023/03/10 03:25:19;;;;;;;10.88;3.17;;;;;;;13.30;51.00;97264.22;4505651;31;20122;-82
2023/03/10 03:27:45;;;;;;;9.75;2.92;;;;;;;13.28;51.11;97250.28;4519733;31;20140;-83
2023/03/10 03:30:16;;;;;;;10.10;2.75;;;;;;;12.98;52.20;97249.41;4519625;31;20079;-82
2023/03/10 03:32:41;;;;;;;10.23;2.95;;;;;;;12.94;52.49;97250.63;4519789;31;20634;-82
2023/03/10 03:35:28;;;;;;;9.85;2.53;;;;;;;13.14;52.14;97238.31;4505106;31;20143;-82
2023/03/10 03:37:54;;;;;;;8.50;2.65;;;;;;;13.25;52.98;97240.81;4519688;31;20450;-82
2023/03/10 03:40:21;;;;;;;10.70;3.25;;;;;;;13.38;52.64;97240.56;4519465;31;20075;-82
2023/03/10 03:42:49;;;;;;;8.77;2.58;;;;;;;13.18;53.69;97232.59;4519603;31;20210;-82
2023/03/10 03:45:18;;;;;;;8.60;2.70;;;;;;;13.29;53.86;97230.78;4505213;31;20126;-82
2023/03/10 03:47:44;;;;;;;8.25;2.85;;;;;;;13.40;53.48;97228.03;4519592;31;20395;-82
2023/03/10 03:50:11;;;;;;;10.07;2.83;;;;;;;13.33;53.98;97222.47;4505085;31;20106;-82
2023/03/10 03:52:37;;;;;;;;;;;;;;;13.47;53.66;97213.28;4519706;31;20099;-82
2023/03/10 03:55:03;;;;;;;10.07;2.83;;;;;;;13.58;53.79;97201.72;4519674;31;20011;-82
2023/03/10 03:57:29;;;;;;;8.70;2.85;;;;;;;13.52;53.95;97203.13;4519415;31;20115;-82
2023/03/10 03:59:54;;;;;;;7.68;2.60;;;;;;;13.54;54.14;97198.50;4519252;31;20083;-82
2023/03/10 04:02:20;;;;;;;8.40;2.60;;;;;;;13.55;54.17;97191.41;4519572;31;20123;-82
2023/03/10 04:04:45;;;;;;;8.80;2.70;;;;;;;13.54;54.12;97181.78;4519496;31;20439;-82
2023/03/10 04:07:11;;;;;;;8.98;2.85;;;;;;;13.55;53.95;97186.94;4505096;31;20177;-82
2023/03/10 04:09:41;;;;;;;8.80;2.95;;;;;;;13.49;54.02;97176.09;4519525;31;20126;-82
2023/03/10 04:12:07;;;;;;;9.65;3.10;;;;;;;13.50;53.93;97175.97;4519815;31;20111;-82
2023/03/10 04:14:33;;;;;;;10.50;3.28;;;;;;;13.48;53.89;97174.41;4505185;31;20087;-82
2023/03/10 04:16:58;;;;;;;8.77;2.87;;;;;;;13.49;53.97;97174.28;4518376;31;20122;-82
2023/03/10 04:19:23;;;;;;;9.80;3.33;;;;;;;13.50;53.71;97167.16;4519579;31;20084;-82
2023/03/10 04:21:49;;;;;;;9.43;3.28;;;;;;;13.39;53.49;97176.13;4519631;31;20118;-82
2023/03/10 04:24:14;;;;;;;11.00;3.33;;;;;;;13.27;53.74;97169.25;4519656;31;20444;-82
2023/03/10 04:26:40;;;;;;;10.02;3.28;;;;;;;13.22;53.99;97168.88;4519567;31;20088;-82
2023/03/10 04:29:05;;;;;;;9.57;2.95;;;;;;;13.22;53.95;97168.88;4519608;31;20115;-82
2023/03/10 04:31:30;;;;;;;9.70;3.28;;;;;;;13.21;53.92;97160.06;4504814;31;20156;-82
2023/03/10 04:33:56;;;;;;;10.38;3.60;;;;;;;13.19;53.64;97164.66;4519396;31;20435;-82
2023/03/10 04:36:21;;;;;;;11.20;3.67;;;;;;;13.15;53.35;97172.06;4519086;31;20118;-82
2023/03/10 04:38:47;;;;;;;9.73;3.10;;;;;;;13.09;52.81;97164.66;4519130;31;20083;-82
2023/03/10 04:41:13;;;;;;;10.73;3.37;;;;;;;13.03;52.65;97159.94;4504957;31;20125;-82
2023/03/10 04:43:38;;;;;;;9.68;3.65;;;;;;;12.94;52.63;97161.62;4519394;31;20388;-82
2023/03/10 04:46:05;;;;;;;10.48;3.65;;;;;;;12.98;52.87;97152.44;4519483;31;20444;-82
2023/03/10 04:48:30;;;;;;;12.88;4.43;;;;;;;12.89;53.32;97150.63;4519183;31;20099;-82
2023/03/10 04:50:57;;;;;;;11.75;4.22;;;;;;;12.85;54.53;97143.13;4519077;31;20083;-82
2023/03/10 04:53:23;;;;;;;13.65;4.95;;;;;;;12.64;56.24;97149.34;4519183;31;20083;-82
2023/03/10 04:55:50;;;;;;;11.30;4.30;;;;;;;12.53;57.20;97142.37;4519078;31;20124;-83
2023/03/10 04:58:19;;;;;;;12.50;4.70;;;;;;;12.43;57.96;97148.63;4519173;31;20110;-82
2023/03/10 05:00:45;;;;;;;11.45;4.70;;;;;;;12.35;58.75;97151.94;4518806;31;20091;-82
2023/03/10 05:03:10;;;;;;;11.55;4.43;;;;;;;12.46;58.51;97150.97;4518987;31;20136;-82
2023/03/10 05:05:36;;;;;;;12.68;4.60;;;;;;;12.55;58.34;97151.00;4519003;31;20084;-82
2023/03/10 05:08:03;;;;;;;11.95;4.40;;;;;;;12.52;58.57;97140.72;4518877;31;20181;-82
2023/03/10 05:10:28;;;;;;;13.40;4.85;;;;;;;12.51;58.68;97152.25;4519105;31;20122;-82
2023/03/10 05:12:53;;;;;;;11.10;4.60;;;;;;;12.55;58.85;97142.25;4519016;31;20091;-82
2023/03/10 05:15:19;;;;;;;11.38;4.15;;;;;;;12.34;59.75;97142.34;4519005;31;20358;-82
2023/03/10 05:17:44;;;;;;;13.48;5.15;;;;;;;12.04;60.89;97135.31;4519034;31;20127;-82
2023/03/10 05:20:10;;;;;;;11.80;4.07;;;;;;;12.37;59.98;97134.97;4518790;31;20088;-82
2023/03/10 05:22:37;;;;;;;11.77;4.28;;;;;;;12.32;60.22;97124.00;4504770;31;20112;-82
2023/03/10 05:25:04;;;;;;;10.82;3.90;;;;;;;12.30;60.48;97120.63;4504489;31;20080;-82
2023/03/10 05:27:32;;;;;;;12.93;4.73;;;;;;;12.54;59.78;97116.81;4518994;31;20075;-82
2023/03/10 05:29:57;;;;;;;10.98;3.70;;;;;;;12.57;59.72;97119.16;4504158;31;20179;-82
2023/03/10 05:32:23;;;;;;;11.48;4.00;;;;;;;12.61;59.59;97117.09;4518699;31;20210;-82
2023/03/10 05:34:48;;;;;;;9.45;3.67;;;;;;;12.91;58.66;97106.38;4519102;31;20099;-82
2023/03/10 05:37:14;;;;;;;9.98;3.90;;;;;;;12.75;59.12;97106.13;4504694;31;20083;-82
2023/03/10 05:39:39;;;;;;;13.40;4.10;;;;;;;12.81;59.04;97096.81;4518841;31;20099;-82
2023/03/10 05:42:05;;;;;;;12.48;3.97;;;;;;;12.93;58.73;97100.97;4519135;31;20079;-82
2023/03/10 05:44:30;;;;;;;13.05;3.90;;;;;;;13.09;58.25;97100.41;4518976;31;20099;-82
2023/03/10 05:46:56;;;;;;;12.15;3.58;;;;;;;12.97;58.64;97097.91;4518817;31;20084;-82
2023/03/10 05:49:21;;;;;;;12.05;4.43;;;;;;;13.12;58.24;97094.84;4518967;31;20407;-82
2023/03/10 05:51:47;;;;;;;13.38;4.47;;;;;;;12.95;58.81;97091.09;4518963;31;20134;-82
2023/03/10 05:54:12;;;;;;;11.90;4.22;;;;;;;13.03;58.53;97093.88;4518796;31;20092;-82
2023/03/10 05:56:38;;;;;;;11.23;4.20;;;;;;;13.12;58.20;97089.56;4518767;31;20517;-82
2023/03/10 05:59:05;;;;;;;10.60;3.85;;;;;;;13.40;57.33;97084.38;4518238;31;20370;-82
2023/03/10 06:01:31;;;;;;;11.98;4.05;;;;;;;13.66;56.67;97085.41;4518688;31;20533;-82
2023/03/10 06:03:57;;;;;;;13.88;5.20;;;;;;;13.80;56.22;97076.16;4518426;31;20083;-82
2023/03/10 06:06:22;;;;;;;13.68;5.70;;;;;;;13.79;55.76;97081.59;4518454;31;20114;-82
2023/03/10 06:08:47;;;;;;;13.80;5.95;;;;;;;14.01;55.05;97077.75;4503893;31;20119;-82
2023/03/10 06:11:13;;;;;;;14.18;6.45;;;;;;;14.11;51.99;97068.75;4518400;31;20108;-82
2023/03/10 06:13:38;;;;;;;15.18;6.43;;;;;;;14.19;50.68;97068.00;4504084;31;20407;-82
2023/03/10 06:16:05;;;;;;;14.45;6.12;;;;;;;14.30;50.01;97065.16;4504165;31;20140;-82
2023/03/10 06:18:32;;;;;;;13.87;6.60;;;;;;;14.36;49.47;97069.84;4504234;31;20096;-82
2023/03/10 06:20:57;;;;;;;14.87;6.65;;;;;;;14.26;49.59;97069.09;4518625;31;20159;-82
2023/03/10 06:23:24;;;;;;;13.82;5.65;;;;;;;14.31;49.60;97068.63;4490921;31;20144;-82
2023/03/10 06:26:01;;;;;;;12.20;6.03;;;;;;;14.11;51.02;97076.69;4504052;31;20381;-82
2023/03/10 06:28:31;;;;;;;12.73;5.75;;;;;;;14.26;50.29;97073.56;4518509;31;20138;-82
2023/03/10 06:31:00;;;;;;;14.10;6.40;;;;;;;13.41;53.52;97086.06;4518594;31;20136;-82
2023/03/10 06:33:27;;;;;;;14.65;5.80;;;;;;;14.14;51.49;97079.06;4503663;31;20435;-82
2023/03/10 06:35:52;;;;;;;15.10;6.07;;;;;;;14.17;50.75;97067.31;4518224;31;20495;-82
2023/03/10 06:38:18;;;;;;;15.10;6.30;;;;;;;14.40;51.03;97070.38;4518436;31;20123;-82
2023/03/10 06:40:44;;;;;;;15.48;6.65;;;;;;;14.29;50.74;97074.09;4504566;31;20118;-82
2023/03/10 06:43:09;;;;;;;16.33;6.60;;;;;;;14.38;49.88;97072.34;4520407;31;20437;-82
2023/03/10 06:45:34;;;;;;;14.20;6.87;;;;;;;14.31;49.92;97072.13;4519928;31;20135;-83
2023/03/10 06:48:00;;;;;;;15.75;7.40;;;;;;;14.28;50.00;97080.38;4520456;31;20088;-83
2023/03/10 06:50:25;;;;;;;15.18;7.10;;;;;;;13.66;51.56;97074.81;4520300;31;20092;-83
2023/03/10 06:52:50;;;;;;;16.02;7.60;;;;;;;14.16;50.50;97082.37;4520323;31;20091;-83
2023/03/10 06:55:16;;;;;;;15.25;7.18;;;;;;;14.02;51.03;97068.81;4520265;31;20105;-83
2023/03/10 06:57:41;;;;;;;15.50;7.30;;;;;;;14.27;50.72;97061.97;4520314;31;20125;-83
2023/03/10 07:00:10;;;;;;;16.35;6.87;;;;;;;14.30;50.54;97061.69;4520009;31;20427;-83
2023/03/10 07:02:37;;;;;;;14.65;7.12;;;;;;;14.35;50.39;97062.03;4519883;31;20496;-83
2023/03/10 07:05:08;;;;;;;16.65;7.87;;;;;;;14.59;50.05;97066.81;4519940;31;20426;-83
2023/03/10 07:07:34;;;;;;;14.02;7.07;;;;;;;14.39;50.43;97070.53;4505492;31;20121;-83
2023/03/10 07:09:59;;;;;;;16.75;7.15;;;;;;;14.30;50.59;97069.63;4519815;31;20084;-83
2023/03/10 07:12:25;;;;;;;15.73;7.12;;;;;;;14.20;51.19;97067.03;4519956;31;20083;-83
2023/03/10 07:14:50;;;;;;;15.93;7.37;;;;;;;14.44;50.80;97063.78;4519716;31;20105;-83
2023/03/10 07:17:16;;;;;;;18.15;8.00;;;;;;;14.58;50.29;97073.06;4519582;31;20103;-83
2023/03/10 07:19:42;;;;;;;16.83;7.43;;;;;;;14.44;50.50;97076.22;4519738;31;20118;-83
2023/03/10 07:22:08;;;;;;;17.05;7.50;;;;;;;14.69;50.25;97069.38;4519797;31;20083;-83
2023/03/10 07:24:34;;;;;;;16.30;7.35;;;;;;;14.80;49.76;97068.31;4519763;31;20371;-83
2023/03/10 07:26:59;;;;;;;17.17;7.37;;;;;;;14.72;50.05;97064.59;4519739;31;20095;-83
2023/03/10 07:29:25;;;;;;;15.00;7.32;;;;;;;14.86;49.82;97057.09;4519740;31;20139;-83
2023/03/10 07:31:51;;;;;;;16.67;7.45;;;;;;;14.74;50.00;97064.47;4519728;31;20095;-83
2023/03/10 07:34:16;;;;;;;16.95;7.28;;;;;;;14.70;50.29;97063.94;4519756;31;20109;-83
2023/03/10 07:36:42;;;;;;;15.65;7.22;;;;;;;14.89;50.07;97060.28;4519532;31;20496;-83
2023/03/10 07:39:07;;;;;;;15.98;7.00;;;;;;;15.02;49.71;97062.53;4519844;31;20106;-83
2023/03/10 07:41:33;;;;;;;15.30;7.57;;;;;;;15.08;49.39;97066.37;4505410;31;20143;-83
2023/03/10 07:43:58;;;;;;;15.80;7.95;;;;;;;15.01;49.45;97068.81;4519952;31;20510;-83
2023/03/10 07:46:24;;;;;;;13.82;6.93;;;;;;;14.95;50.25;97064.16;4519778;31;20122;-83
2023/03/10 07:48:51;;;;;;;17.67;7.68;;;;;;;15.23;49.55;97069.31;4505487;31;20381;-83
2023/03/10 07:51:17;;;;;;;16.42;5.30;;;;;;;15.24;49.71;97066.50;4519842;31;20501;-83
2023/03/10 07:53:42;;;;;;;15.20;7.43;;;;;;;15.04;50.77;97059.72;4505282;31;20133;-83
2023/03/10 07:56:10;;;;;;;17.17;7.05;;;;;;;15.56;49.39;97045.63;4519655;31;20092;-83
2023/03/10 07:58:36;;;;;;;12.60;4.12;;;;;;;15.87;48.71;97040.66;4505456;31;20454;-83
2023/03/10 08:01:02;;;;;;;10.40;3.08;;;;;;;16.00;48.75;97032.25;4519518;31;20133;-83
2023/03/10 08:03:28;;;;;;;9.60;2.80;;;;;;;16.04;49.37;97039.72;4505378;31;20088;-83
2023/03/10 08:05:54;;;;;;;13.68;2.90;;;;;;;16.23;49.05;97029.84;4519783;31;20099;-83
2023/03/10 08:08:20;;;;;;;8.95;2.87;;;;;;;16.10;49.24;97030.28;4519624;31;20095;-84
2023/03/10 08:10:45;;;;;;;10.20;3.05;;;;;;;16.38;48.65;97030.00;4519798;31;20103;-84
2023/03/10 08:13:11;;;;;;;10.88;3.22;;;;;;;16.49;48.27;97033.19;4519490;31;20313;-84
2023/03/10 08:15:37;;;;;;;13.50;4.07;;;;;;;17.00;46.93;97019.78;4505219;31;20128;-83
2023/03/10 08:18:04;;;;;;;10.30;3.85;;;;;;;17.04;46.82;97015.78;4519666;31;20113;-83
2023/03/10 08:20:31;;;;;;;10.60;3.65;;;;;;;16.97;46.97;97020.09;4519415;31;20118;-84
2023/03/10 08:22:56;;;;;;;10.17;3.43;;;;;;;16.78;47.15;97009.78;4519676;31;20099;-83
2023/03/10 08:25:22;;;;;;;10.30;3.92;;;;;;;16.71;47.50;97013.09;4519488;31;20103;-84
2023/03/10 08:27:48;;;;;;;14.60;4.80;;;;;;;17.10;46.27;97006.31;4519615;31;20110;-83
2023/03/10 08:30:14;;;;;;;10.43;4.12;;;;;;;16.50;47.78;97004.78;4519612;31;20095;-84
2023/03/10 08:32:39;;;;;;;10.88;4.05;;;;;;;16.82;46.94;97000.50;4519497;31;20401;-83
2023/03/10 08:35:05;;;;;;;19.92;4.35;;;;;;;17.25;45.88;97004.63;4519495;31;20147;-83
2023/03/10 08:37:30;;;;;;;11.05;4.10;;;;;;;17.09;46.48;96988.66;4519220;31;20439;-83
2023/03/10 08:39:57;;;;;;;12.18;4.53;;;;;;;17.20;46.30;96992.81;4518935;31;20080;-84
2023/03/10 08:42:23;;;;;;;11.13;4.47;;;;;;;17.21;45.98;96994.47;4519468;31;20208;-83
2023/03/10 08:44:48;;;;;;;12.57;4.80;;;;;;;17.17;45.91;96994.00;4504575;31;20188;-83
2023/03/10 08:47:14;;;;;;;13.90;4.90;;;;;;;17.14;45.74;96989.00;4519175;31;20126;-83
2023/03/10 08:49:40;;;;;;;13.85;5.22;;;;;;;17.13;46.25;96989.16;4519229;31;20452;-83
2023/03/10 08:52:06;;;;;;;13.15;5.03;;;;;;;17.46;45.36;96982.78;4519133;31;20083;-84
2023/03/10 08:54:32;;;;;;;16.15;5.32;;;;;;;17.61;44.91;96971.38;4504608;31;20111;-83
2023/03/10 08:56:58;;;;;;;14.13;4.53;;;;;;;17.59;44.87;96976.88;4519227;31;20110;-83
2023/03/10 08:59:23;;;;;;;13.60;4.20;;;;;;;17.85;44.14;96973.97;4518836;31;20087;-83
2023/03/10 09:01:49;;;;;;;12.73;4.78;;;;;;;17.50;44.91;96967.28;4519146;31;20071;-83
2023/03/10 09:04:14;;;;;;;12.20;4.15;;;;;;;17.78;44.55;96964.16;4490742;31;20115;-83
2023/03/10 09:06:40;;;;;;;11.82;4.10;;;;;;;17.90;43.86;96970.78;4519042;31;20087;-83
2023/03/10 09:09:07;;;;;;;10.93;3.47;;;;;;;17.92;43.44;96970.62;4518905;31;20324;-83
2023/03/10 09:11:34;;;;;;;11.07;3.95;;;;;;;17.23;45.44;96973.81;4518893;31;20100;-83
2023/03/10 09:14:00;;;;;;;12.65;3.83;;;;;;;17.32;45.18;96967.50;4519064;31;20197;-83
2023/03/10 09:16:27;;;;;;;12.23;4.00;;;;;;;17.67;44.34;96960.91;4518978;31;20156;-83
2023/03/10 09:18:55;;;;;;;11.88;4.28;;;;;;;17.66;44.36;96966.38;4519323;31;20227;-83
2023/03/10 09:21:20;;;;;;;12.15;4.25;;;;;;;17.80;44.16;96962.16;4519108;31;20068;-84
2023/03/10 09:23:48;;;;;;;11.40;4.30;;;;;;;17.42;44.76;96962.81;4519099;31;20468;-83
2023/03/10 09:26:14;;;;;;;12.75;5.35;;;;;;;17.93;43.87;96966.97;4519254;31;20125;-83
2023/03/10 09:28:39;;;;;;;14.50;5.75;;;;;;;17.90;44.14;96962.78;4504591;31;20415;-83
2023/03/10 09:31:06;;;;;;;12.02;5.87;;;;;;;18.12;43.48;96955.00;4519180;31;20083;-83
2023/03/10 09:33:32;;;;;;;15.20;6.40;;;;;;;18.07;43.51;96953.69;4519110;31;20134;-83
2023/03/10 09:35:58;;;;;;;16.10;7.05;;;;;;;17.98;43.68;96941.47;4519045;31;20109;-84
2023/03/10 09:38:24;;;;;;;17.27;6.95;;;;;;;17.93;43.80;96946.47;4519022;31;20132;-83
2023/03/10 09:41:13;;;;;;;17.80;7.80;;;;;;;17.65;44.49;96946.06;4518603;31;20084;-83
2023/03/10 09:43:44;;;;;;;18.55;9.13;;;;;;;17.77;44.52;96930.53;4438069;32;20173;-84
2023/03/10 09:46:36;;;;;;;18.73;9.68;;;;;;;17.40;45.72;96940.88;4425309;32;20109;-83
2023/03/10 09:49:20;;;;;;;21.27;10.65;;;;;;;17.59;45.20;96936.94;4438281;32;20122;-83
2023/03/10 09:51:48;;;;;;;22.02;9.27;;;;;;;17.38;46.08;96931.38;4438251;32;20116;-83
2023/03/10 09:54:35;;;;;;;;;;;;;;;17.65;45.46;96922.97;4438554;32;20113;-84
2023/03/10 09:57:03;;;;;;;21.65;9.95;;;;;;;17.68;45.80;96925.25;4425590;32;20016;-83
2023/03/10 09:59:47;;;;;;;20.70;9.57;;;;;;;17.58;46.17;96921.97;4437935;32;20153;-83
2023/03/10 10:02:23;;;;;;;17.73;8.35;;;;;;;17.78;45.89;96919.72;4425315;32;20107;-83
2023/03/10 10:04:52;;;;;;;17.62;7.72;;;;;;;17.95;45.91;96917.81;4425109;32;20101;-83
2023/03/10 10:07:22;;;;;;;14.25;6.57;;;;;;;17.98;46.09;96913.97;4425098;32;20622;-83
2023/03/10 10:09:57;;;;;;;13.93;6.25;;;;;;;17.96;46.65;96903.47;4425412;32;20100;-83
2023/03/10 10:12:24;;;;;;;12.48;5.00;;;;;;;18.00;46.74;96899.47;4425072;32;20139;-83
2023/03/10 10:14:58;;;;;;;13.15;5.75;;;;;;;18.03;47.08;96890.28;4436679;32;20404;-83
2023/03/10 10:17:33;;;;;;;13.98;5.62;;;;;;;18.12;46.93;96891.91;4437829;32;20884;-83
2023/03/10 10:19:59;;;;;;;18.48;5.90;;;;;;;18.08;47.21;96886.09;4441215;31;20541;-83
2023/03/10 10:22:29;;;;;;;14.87;5.95;;;;;;;18.41;46.19;96885.84;4518186;31;20084;-83
2023/03/10 10:25:07;;;;;;;15.40;6.22;;;;;;;18.44;46.12;96877.44;4503811;31;20116;-83
2023/03/10 10:27:33;;;;;;;16.07;5.87;;;;;;;18.52;45.82;96881.06;4518391;31;20155;-83
2023/03/10 10:29:58;;;;;;;12.20;5.60;;;;;;;18.00;47.64;96877.31;4518182;31;20424;-83
2023/03/10 10:32:24;;;;;;;16.35;6.05;;;;;;;18.42;46.44;96868.81;4518270;31;20075;-83
2023/03/10 10:34:49;;;;;;;15.95;6.47;;;;;;;18.51;46.21;96864.25;4518166;31;20159;-83
2023/03/10 10:37:30;;;;;;;12.68;5.95;;;;;;;18.44;46.54;96850.78;4518104;31;20100;-83
2023/03/10 10:39:58;;;;;;;15.00;5.40;;;;;;;18.74;45.73;96840.19;4503598;31;20154;-83
2023/03/10 10:42:23;;;;;;;;;;;;;;;18.88;45.23;96846.56;4504083;31;20155;-83
2023/03/10 10:44:54;;;;;;;13.70;5.50;;;;;;;19.02;44.86;96842.22;4518204;31;20369;-83
2023/03/10 10:47:27;;;;;;;13.50;5.12;;;;;;;19.20;44.43;96839.16;4518049;31;20079;-83
2023/03/10 10:49:53;;;;;;;13.43;4.85;;;;;;;19.21;43.70;96838.16;4517989;31;20095;-83
2023/03/10 10:52:22;;;;;;;15.40;5.10;;;;;;;19.19;43.27;96832.19;4503353;31;20075;-83
2023/03/10 10:54:58;;;;;;;11.73;4.97;;;;;;;19.02;43.76;96828.88;4518106;31;20156;-83
2023/03/10 10:57:52;;;;;;;11.82;4.45;;;;;;;19.21;43.22;96830.16;4518097;31;20091;-83
2023/03/10 11:00:24;;;;;;;12.30;4.60;;;;;;;19.24;43.27;96827.12;4517578;31;20092;-83
2023/03/10 11:02:49;;;;;;;13.68;4.70;;;;;;;19.38;42.77;96823.59;4503481;31;20599;-83
2023/03/10 11:05:18;;;;;;;14.02;4.70;;;;;;;19.47;42.37;96804.78;4518066;31;20139;-83
2023/03/10 11:07:44;;;;;;;12.20;4.62;;;;;;;19.66;42.01;96804.16;4503413;31;20115;-83
2023/03/10 11:10:15;;;;;;;14.70;4.85;;;;;;;19.65;41.89;96802.53;4517623;31;20462;-83
2023/03/10 11:12:49;;;;;;;11.12;3.67;;;;;;;19.70;41.79;96792.13;4517685;31;20468;-83
2023/03/10 11:15:22;;;;;;;11.15;3.72;;;;;;;19.77;41.17;96786.84;4517746;31;20443;-83
2023/03/10 11:17:52;;;;;;;12.13;4.00;;;;;;;19.75;41.34;96781.69;4503213;31;20162;-83
2023/03/10 11:20:23;;;;;;;11.68;4.37;;;;;;;19.96;41.34;96770.16;4503100;31;20080;-84
2023/03/10 11:22:57;;;;;;;12.57;4.70;;;;;;;19.97;41.83;96771.00;4517394;31;20080;-84
2023/03/10 11:25:35;;;;;;;13.07;4.40;;;;;;;20.04;41.69;96772.69;4517567;31;20200;-84
2023/03/10 11:28:26;;;;;;;12.02;5.00;;;;;;;19.92;42.04;96773.44;4519461;31;20502;-84
2023/03/10 11:31:17;;;;;;;12.98;4.10;;;;;;;19.88;41.65;96764.97;4492382;31;20122;-83
2023/03/10 11:33:45;;;;;;;12.20;4.15;;;;;;;19.55;42.69;96759.28;4519811;31;20427;-84